createdAt,value
2018-05-18T01:58:16.160Z,11.20
2018-05-18T02:00:46.531Z,11.40
2018-05-18T02:03:16.827Z,11.20
2018-05-18T02:05:46.993Z,11.20
2018-05-18T02:08:17.042Z,11.20
2018-05-18T02:10:47.481Z,11.50
2018-05-18T02:13:17.449Z,11.50
2018-05-18T02:15:47.397Z,11.60
2018-05-18T02:18:17.780Z,11.80
2018-05-18T02:20:48.652Z,11.70
2018-05-18T02:23:18.722Z,11.70
2018-05-18T02:25:49.206Z,11.70
2018-05-18T02:28:20.321Z,10.90
2018-05-18T02:30:50.449Z,10.90
2018-05-18T02:33:21.677Z,10.30
2018-05-18T02:35:51.802Z,10.20
2018-05-18T02:38:22.198Z,10.00
2018-05-18T02:40:52.687Z,9.90
2018-05-18T02:43:22.709Z,9.80
2018-05-18T02:45:53.031Z,9.70
2018-05-18T02:48:23.577Z,9.70
2018-05-18T02:50:53.797Z,9.40
2018-05-18T02:53:24.610Z,9.70
2018-05-18T02:55:56.857Z,9.80
2018-05-18T02:58:26.895Z,9.80
2018-05-18T03:00:58.556Z,10.40
2018-05-18T03:03:29.910Z,10.30
2018-05-18T03:05:59.928Z,10.20
2018-05-18T17:28:45.449Z,16.00
2018-05-18T17:31:15.842Z,15.90
2018-05-18T17:33:46.275Z,15.80
2018-05-18T17:36:16.536Z,15.50
2018-05-18T17:38:46.741Z,15.50
2018-05-18T17:41:17.211Z,15.40
2018-05-18T17:43:48.265Z,14.30
2018-05-18T17:46:19.261Z,15.40
2018-05-18T17:48:49.761Z,15.40
2018-05-18T17:51:19.924Z,15.30
2018-05-18T17:53:50.136Z,15.40
2018-05-18T17:56:20.610Z,14.80
2018-05-18T17:58:50.758Z,14.90
2018-05-18T18:01:20.947Z,15.60
2018-05-18T18:03:51.112Z,15.60
2018-05-18T18:06:21.246Z,15.40
2018-05-18T18:08:51.358Z,15.20
2018-05-18T18:11:23.723Z,14.80
2018-05-18T18:13:55.220Z,15.40
2018-05-18T18:16:27.149Z,15.70
2018-05-18T18:18:57.211Z,15.60
2018-05-18T18:21:27.497Z,15.60
2018-05-18T18:23:58.071Z,15.50
2018-05-18T18:26:28.245Z,15.30
2018-05-18T18:29:01.238Z,13.50
2018-05-18T18:31:33.687Z,15.00
2018-05-18T18:34:03.793Z,15.00
2018-05-18T18:36:34.289Z,14.90
2018-05-18T18:39:04.885Z,15.00
2018-05-18T18:41:35.933Z,15.10
2018-05-18T18:44:06.708Z,15.10
2018-05-18T18:46:36.922Z,15.10
2018-05-18T18:49:08.243Z,14.90
2018-05-18T18:51:39.503Z,14.90
2018-05-18T18:54:10.569Z,15.00
2018-05-18T18:56:41.755Z,14.90
2018-05-18T18:59:12.097Z,14.90
2018-05-18T19:01:42.251Z,15.70
2018-05-18T19:04:13.408Z,14.90
2018-05-18T19:06:44.234Z,15.00
2018-05-18T19:09:14.346Z,15.00
2018-05-18T19:11:44.742Z,15.10
2018-05-18T19:14:15.063Z,15.30
2018-05-18T19:16:45.271Z,15.40
2018-05-18T19:19:15.908Z,15.50
2018-05-18T19:21:46.872Z,15.40
2018-05-18T19:24:18.006Z,14.70
2018-05-18T19:26:48.484Z,14.80
2018-05-18T19:29:18.636Z,15.10
2018-05-18T19:31:48.732Z,15.20
2018-05-18T19:34:19.107Z,15.30
2018-05-18T19:36:49.879Z,15.30
2018-05-18T19:39:20.118Z,15.30
2018-05-18T19:41:50.886Z,15.30
2018-05-18T19:44:20.991Z,15.00
2018-05-18T19:46:51.328Z,15.10
2018-05-18T20:53:17.319Z,14.70
2018-05-18T20:55:49.390Z,14.80
2018-05-18T20:58:21.249Z,14.80
2018-05-18T21:00:52.170Z,15.40
2018-05-18T21:03:23.579Z,14.60
2018-05-18T21:05:55.376Z,14.60
2018-05-18T21:08:26.437Z,14.40
2018-05-18T21:10:57.946Z,14.40
2018-05-18T21:13:28.851Z,14.30
2018-05-18T21:15:59.520Z,14.30
2018-05-18T21:18:30.569Z,14.20
2018-05-18T21:21:02.497Z,14.20
2018-05-18T21:23:33.956Z,14.10
2018-05-18T21:26:07.312Z,14.10
2018-05-18T21:28:38.334Z,14.10
2018-05-18T21:31:10.682Z,14.00
2018-05-18T21:33:41.856Z,13.90
2018-05-18T21:36:12.745Z,13.90
2018-05-18T21:38:43.002Z,13.90
2018-05-18T21:41:19.376Z,13.80
2018-05-18T21:43:49.594Z,13.70
2018-05-18T21:46:20.499Z,13.80
2018-05-18T21:48:50.972Z,13.70
2018-05-18T21:51:21.888Z,13.80
2018-05-18T21:53:52.478Z,13.70
2018-05-18T21:56:22.633Z,14.60
2018-05-18T21:58:52.814Z,13.60
2018-05-18T22:01:24.630Z,13.70
2018-05-18T22:03:56.365Z,13.60
2018-05-18T22:06:26.741Z,13.50
2018-05-18T22:08:56.884Z,13.60
2018-05-18T22:11:28.733Z,13.50
2018-05-18T22:13:58.948Z,13.40
2018-05-18T22:16:28.989Z,13.40
2018-05-18T22:18:59.111Z,13.40
2018-05-18T22:21:29.328Z,13.50
2018-05-18T22:23:59.595Z,13.30
2018-05-18T22:26:30.460Z,13.30
2018-05-18T22:29:00.573Z,13.30
2018-05-18T22:31:30.617Z,13.30
2018-05-18T22:36:43.123Z,13.30
2018-05-18T22:39:13.281Z,13.30
2018-05-18T22:41:43.333Z,13.30
2018-05-18T22:44:14.493Z,13.20
2018-05-18T22:46:46.227Z,13.10
2018-05-18T22:49:16.314Z,13.10
2018-05-18T22:51:46.241Z,13.10
2018-05-18T22:54:16.130Z,13.20
2018-05-18T22:56:46.010Z,13.20
2018-05-18T22:59:17.781Z,13.30
2018-05-18T23:01:47.810Z,13.30
2018-05-18T23:04:18.898Z,13.50
2018-05-18T23:06:48.958Z,13.50
2018-05-18T23:09:20.877Z,13.50
2018-05-18T23:11:50.798Z,13.30
2018-05-18T23:14:20.864Z,13.30
2018-05-18T23:16:50.935Z,13.30
2018-05-18T23:19:21.215Z,13.30
2018-05-18T23:21:51.256Z,13.40
2018-05-18T23:24:21.480Z,13.30
2018-05-18T23:26:51.352Z,13.10
2018-05-18T23:29:21.367Z,13.20
2018-05-18T23:31:51.483Z,13.10
2018-05-18T23:34:22.099Z,13.00
2018-05-18T23:36:52.225Z,13.00
2018-05-18T23:39:23.152Z,12.90
2018-05-18T23:41:53.532Z,12.90
2018-05-18T23:44:23.625Z,12.80
2018-05-18T23:46:53.782Z,12.60
2018-05-18T23:49:24.126Z,11.30
2018-05-18T23:51:54.229Z,13.80
2018-05-18T23:54:24.305Z,12.60
2018-05-18T23:56:54.733Z,12.70
2018-05-18T23:59:24.684Z,12.70
